Time;durP1;ratioP1;P1;durP2;ratioP2;P2;SDS_P1;SDS_P2;PMS_P1;PMS_P2;Temp;Humidity;BMP_temperature;BMP_pressure;BME280_temperature;BME280_humidity;BME280_pressure;Samples;Min_cycle;Max_cycle;Signal;HPM_P1;HPM_P2
2021/01/18 00:00:56;;;;;;;31.95;7.00;;;;;;;6.36;76.08;100327.06;5033233;28;20108;-78
2021/01/18 00:03:23;;;;;;;30.13;8.65;;;;;;;6.36;76.38;100318.38;5033136;28;20049;-79
2021/01/18 00:05:49;;;;;;;30.17;7.10;;;;;;;6.38;76.14;100327.00;5033408;28;20049;-79
2021/01/18 00:08:15;;;;;;;21.30;7.70;;;;;;;6.36;76.36;100334.91;5037122;28;20049;-78
2021/01/18 00:10:41;;;;;;;21.13;7.18;;;;;;;6.37;75.98;100331.41;5036752;28;20056;-78
2021/01/18 00:13:07;;;;;;;21.35;6.82;;;;;;;6.36;75.99;100334.91;5036461;28;20041;-79
2021/01/18 00:15:33;;;;;;;24.20;6.90;;;;;;;6.35;76.25;100322.75;5036773;28;20425;-78
2021/01/18 00:17:59;;;;;;;25.75;7.85;;;;;;;6.35;76.19;100329.72;5036863;28;20049;-79
2021/01/18 00:20:26;;;;;;;33.10;9.88;;;;;;;6.35;76.30;100327.97;5036747;28;20126;-78
2021/01/18 00:22:52;;;;;;;30.40;10.27;;;;;;;6.34;76.10;100323.66;5036502;28;20469;-78
2021/01/18 00:25:23;;;;;;;26.30;10.32;;;;;;;6.32;75.70;100330.66;5036276;28;20107;-79
2021/01/18 00:27:50;;;;;;;25.15;10.07;;;;;;;6.34;75.98;100334.09;5036512;28;20049;-79
2021/01/18 00:30:22;;;;;;;32.10;11.40;;;;;;;6.32;75.97;100335.06;5036416;28;20049;-79
2021/01/18 00:32:50;;;;;;;32.57;9.30;;;;;;;6.33;76.24;100335.00;5036113;28;20050;-79
2021/01/18 00:35:18;;;;;;;24.17;8.30;;;;;;;6.33;76.02;100331.53;5035156;28;20046;-79
2021/01/18 00:37:47;;;;;;;26.95;7.88;;;;;;;6.34;76.26;100322.78;5036409;28;20092;-79
2021/01/18 00:40:16;;;;;;;20.98;6.78;;;;;;;6.34;76.13;100333.25;5036116;28;20049;-79
2021/01/18 00:42:43;;;;;;;20.27;7.15;;;;;;;6.33;76.11;100332.41;5036153;28;20046;-79
2021/01/18 00:45:12;;;;;;;19.50;6.47;;;;;;;6.33;76.26;100329.78;5036019;28;20529;-79
2021/01/18 00:47:48;;;;;;;30.77;6.72;;;;;;;6.33;75.98;100331.53;5036293;28;20387;-79
2021/01/18 00:50:16;;;;;;;21.05;6.60;;;;;;;6.33;76.05;100324.56;5035908;28;20049;-79
2021/01/18 00:52:44;;;;;;;26.73;6.45;;;;;;;6.32;75.81;100325.44;5035823;28;20441;-79
2021/01/18 00:55:12;;;;;;;26.60;6.53;;;;;;;6.32;75.82;100324.59;5036027;28;20127;-79
2021/01/18 00:57:38;;;;;;;20.73;6.85;;;;;;;6.30;75.97;100319.41;5036104;28;20068;-79
2021/01/18 01:00:07;;;;;;;22.25;7.07;;;;;;;6.29;75.88;100317.72;5035900;28;20060;-79
2021/01/18 01:02:33;;;;;;;17.80;5.85;;;;;;;6.29;76.07;100320.31;5035773;28;20099;-79
2021/01/18 01:05:00;;;;;;;24.27;6.82;;;;;;;6.27;76.03;100322.13;5035932;28;20095;-79
2021/01/18 01:07:26;;;;;;;23.63;6.90;;;;;;;6.28;75.90;100317.75;5035954;28;20053;-79
2021/01/18 01:09:52;;;;;;;27.15;6.53;;;;;;;6.28;76.16;100313.34;5035832;28;20049;-79
2021/01/18 01:12:20;;;;;;;21.50;6.47;;;;;;;6.27;76.06;100321.28;5035494;28;20050;-79
2021/01/18 01:14:48;;;;;;;23.85;5.97;;;;;;;6.27;75.80;100322.13;5035587;28;20053;-79
2021/01/18 01:17:14;;;;;;;20.00;6.15;;;;;;;6.28;76.16;100312.53;5034737;28;20065;-79
2021/01/18 01:19:40;;;;;;;20.48;6.85;;;;;;;6.27;75.86;100309.03;5035281;28;20060;-79
2021/01/18 01:22:06;;;;;;;21.38;5.38;;;;;;;6.28;75.78;100310.75;5035403;28;20494;-79
2021/01/18 01:24:32;;;;;;;20.38;5.65;;;;;;;6.27;75.76;100306.44;5035395;28;20100;-79
2021/01/18 01:26:58;;;;;;;21.77;5.05;;;;;;;6.28;75.72;100315.13;5035540;28;20049;-79
2021/01/18 01:29:24;;;;;;;23.58;5.18;;;;;;;6.27;75.70;100313.44;5035552;28;20183;-79
2021/01/18 01:31:50;;;;;;;11.90;4.30;;;;;;;6.25;75.65;100321.31;5035430;28;20057;-79
2021/01/18 01:34:16;;;;;;;23.17;4.75;;;;;;;6.25;75.96;100310.84;5035149;28;20056;-79
2021/01/18 01:36:43;;;;;;;22.25;4.25;;;;;;;6.24;76.04;100312.59;5035122;28;20053;-79
2021/01/18 01:39:09;;;;;;;19.42;4.50;;;;;;;6.24;76.15;100317.84;5034997;28;20053;-79
2021/01/18 01:41:37;;;;;;;16.33;4.70;;;;;;;6.24;75.90;100312.59;5033977;28;20045;-79
2021/01/18 01:44:04;;;;;;;31.38;6.03;;;;;;;6.25;75.81;100316.91;5034983;28;20065;-79
2021/01/18 01:46:30;;;;;;;20.20;5.00;;;;;;;6.26;76.01;100323.03;5035371;28;20045;-79
2021/01/18 01:48:56;;;;;;;17.65;4.43;;;;;;;6.26;75.96;100315.19;5035087;28;20057;-79
2021/01/18 01:51:26;;;;;;;22.25;5.93;;;;;;;6.26;75.81;100312.56;5035137;28;20046;-79
2021/01/18 01:53:52;;;;;;;17.40;5.57;;;;;;;6.27;75.59;100311.66;5035073;28;20045;-79
2021/01/18 01:56:19;;;;;;;19.75;5.85;;;;;;;6.25;75.67;100313.47;5034876;28;20065;-79
2021/01/18 01:58:46;;;;;;;18.80;5.43;;;;;;;6.24;75.50;100306.50;5034894;28;20497;-79
2021/01/18 02:01:13;;;;;;;14.35;5.30;;;;;;;6.22;75.37;100303.09;5034899;28;20084;-79
2021/01/18 02:03:45;;;;;;;19.02;4.78;;;;;;;6.19;75.36;100301.44;5034372;28;20061;-79
2021/01/18 02:06:11;;;;;;;21.35;5.82;;;;;;;6.19;75.29;100311.03;5034578;28;20053;-79
2021/01/18 02:08:38;;;;;;;14.70;5.65;;;;;;;6.16;75.35;100309.34;5034578;28;20053;-79
2021/01/18 02:11:06;;;;;;;21.77;4.88;;;;;;;6.13;75.54;100304.22;5034603;28;20096;-79
2021/01/18 02:13:44;;;;;;;19.45;4.57;;;;;;;6.09;75.12;100311.31;5034306;28;20049;-79
2021/01/18 02:16:20;;;;;;;13.02;4.75;;;;;;;6.07;75.23;100300.06;5034330;28;20049;-79
2021/01/18 02:18:55;;;;;;;14.18;4.72;;;;;;;6.08;75.25;100303.50;5034377;28;20092;-79
2021/01/18 02:21:39;;;;;;;14.30;4.63;;;;;;;6.04;75.12;100307.97;5034797;28;20041;-79
2021/01/18 02:24:19;;;;;;;20.95;4.30;;;;;;;6.00;75.17;100312.41;5034628;28;20057;-79
2021/01/18 02:27:22;;;;;;;15.82;4.40;;;;;;;5.98;75.23;100305.53;5034482;28;20403;-79
2021/01/18 02:30:05;;;;;;;13.68;4.65;;;;;;;5.95;75.28;100322.13;5034146;28;20120;-79
2021/01/18 02:32:56;;;;;;;21.98;4.60;;;;;;;5.94;75.04;100314.34;5034030;28;20076;-78
2021/01/18 02:35:53;;;;;;;17.65;4.80;;;;;;;5.88;75.21;100310.16;5033960;28;20566;-79
2021/01/18 02:38:29;;;;;;;13.18;5.18;;;;;;;5.90;75.17;100320.56;5034237;28;20045;-79
2021/01/18 02:41:15;;;;;;;17.65;5.63;;;;;;;5.84;75.43;100317.19;5034238;28;20050;-79
2021/01/18 02:43:54;;;;;;;20.80;5.70;;;;;;;5.82;75.03;100320.75;5033957;28;20081;-79
2021/01/18 02:46:25;;;;;;;12.27;5.38;;;;;;;5.84;75.37;100318.97;5033879;28;20505;-79
2021/01/18 02:48:52;;;;;;;12.65;5.30;;;;;;;5.81;75.44;100314.69;5034017;28;20045;-79
2021/01/18 02:51:20;;;;;;;15.07;6.72;;;;;;;5.79;75.52;100308.63;5033927;28;20050;-79
2021/01/18 02:53:58;;;;;;;14.57;5.63;;;;;;;5.75;75.37;100320.06;5033510;28;20052;-79
2021/01/18 02:56:35;;;;;;;13.18;6.07;;;;;;;5.73;75.28;100314.03;5034157;28;20079;-79
2021/01/18 02:59:03;;;;;;;20.35;5.60;;;;;;;5.73;75.32;100311.44;5033816;28;20049;-78
2021/01/18 03:01:44;;;;;;;21.77;5.72;;;;;;;5.68;75.19;100308.09;5033826;28;20049;-79
2021/01/18 03:04:50;;;;;;;17.88;6.38;;;;;;;5.67;75.18;100311.59;5032396;28;20057;-79
2021/01/18 03:07:39;;;;;;;19.38;6.30;;;;;;;5.70;75.68;100317.59;5031833;28;20049;-79
2021/01/18 03:10:16;;;;;;;23.77;6.25;;;;;;;5.69;75.49;100312.41;5033652;28;20053;-79
2021/01/18 03:12:51;;;;;;;18.23;5.88;;;;;;;5.65;75.62;100311.66;5033459;28;20046;-78
2021/01/18 03:15:20;;;;;;;25.00;6.57;;;;;;;5.65;75.74;100316.00;5033401;28;20057;-79
2021/01/18 03:17:50;;;;;;;17.73;7.20;;;;;;;5.65;75.89;100310.78;5033632;28;20045;-79
2021/01/18 03:20:18;;;;;;;21.58;6.28;;;;;;;5.64;75.77;100309.09;5033794;28;20080;-79
2021/01/18 03:22:45;;;;;;;21.05;6.53;;;;;;;5.64;75.97;100316.91;5033306;28;20486;-79
2021/01/18 03:25:11;;;;;;;17.85;6.38;;;;;;;5.63;75.71;100315.19;5033273;28;20391;-79
2021/01/18 03:27:49;;;;;;;27.33;6.60;;;;;;;5.59;75.73;100320.50;5033889;28;20052;-79
2021/01/18 03:30:20;;;;;;;25.00;7.28;;;;;;;5.61;76.01;100316.09;5033466;28;20490;-78
2021/01/18 03:32:48;;;;;;;20.58;7.20;;;;;;;5.61;76.01;100310.84;5033223;28;20057;-78
2021/01/18 03:35:14;;;;;;;18.55;6.78;;;;;;;5.61;75.88;100313.47;5033405;28;20057;-79
2021/01/18 03:37:40;;;;;;;18.85;7.55;;;;;;;5.61;76.00;100310.84;5033159;28;20103;-78
2021/01/18 03:40:07;;;;;;;20.50;7.57;;;;;;;5.62;75.92;100314.34;5033484;28;20449;-78
2021/01/18 03:42:33;;;;;;;20.27;7.38;;;;;;;5.64;75.86;100311.69;5035837;28;20076;-78
2021/01/18 03:44:59;;;;;;;19.23;7.45;;;;;;;5.65;76.24;100305.56;5037128;28;20049;-78
2021/01/18 03:47:25;;;;;;;18.95;7.43;;;;;;;5.66;76.01;100304.66;5037378;28;20053;-79
2021/01/18 03:49:51;;;;;;;17.15;6.68;;;;;;;5.64;76.03;100296.03;5037225;28;20053;-78
2021/01/18 03:52:17;;;;;;;21.77;6.82;;;;;;;5.65;75.92;100308.19;5037052;28;20053;-79
2021/01/18 03:54:44;;;;;;;20.42;7.03;;;;;;;5.64;75.97;100307.31;5037201;28;20064;-79
2021/01/18 03:57:10;;;;;;;23.40;7.20;;;;;;;5.63;75.97;100295.16;5037291;28;20049;-79
2021/01/18 03:59:35;;;;;;;20.33;7.10;;;;;;;5.64;76.09;100301.25;5037214;28;20119;-79
2021/01/18 04:02:02;;;;;;;26.23;7.45;;;;;;;5.64;76.10;100309.09;5037147;28;20049;-79
2021/01/18 04:04:28;;;;;;;21.25;6.20;;;;;;;5.64;76.16;100303.84;5036930;28;20107;-78
2021/01/18 04:06:54;;;;;;;23.33;7.65;;;;;;;5.64;76.02;100303.84;5036758;28;20136;-79
2021/01/18 04:09:20;;;;;;;22.73;7.35;;;;;;;5.64;75.99;100306.47;5036887;28;20053;-79
2021/01/18 04:11:46;;;;;;;20.65;6.75;;;;;;;5.64;75.93;100312.53;5036823;28;20509;-79
2021/01/18 04:14:13;;;;;;;18.02;7.47;;;;;;;5.64;75.98;100312.53;5036639;28;20076;-79
2021/01/18 04:16:40;;;;;;;21.65;6.85;;;;;;;5.64;76.02;100312.53;5036668;28;20537;-79
2021/01/18 04:19:07;;;;;;;18.67;7.43;;;;;;;5.66;76.15;100309.88;5035502;28;20128;-79
2021/01/18 04:21:36;;;;;;;17.45;7.85;;;;;;;5.62;75.94;100311.72;5036604;28;20103;-79
2021/01/18 04:24:02;;;;;;;22.00;7.25;;;;;;;5.63;75.83;100304.72;5036765;28;20049;-78
2021/01/18 04:26:28;;;;;;;25.92;7.80;;;;;;;5.63;76.29;100312.56;5036705;28;20396;-78
2021/01/18 04:28:54;;;;;;;24.88;7.47;;;;;;;5.63;76.45;100313.44;5036544;28;20488;-79
2021/01/18 04:31:20;;;;;;;21.00;7.70;;;;;;;5.64;76.38;100311.69;5036489;28;20053;-79
2021/01/18 04:33:46;;;;;;;13.88;6.78;;;;;;;5.65;76.33;100314.25;5036129;28;20045;-79
2021/01/18 04:36:13;;;;;;;22.85;7.90;;;;;;;5.65;76.24;100305.56;5036483;28;20045;-79
2021/01/18 04:38:39;;;;;;;21.23;6.82;;;;;;;5.66;76.25;100304.66;5036366;28;20057;-79
2021/01/18 04:41:09;;;;;;;17.20;7.57;;;;;;;5.64;76.11;100303.84;5036231;28;20533;-79
2021/01/18 04:43:38;;;;;;;19.33;7.97;;;;;;;5.64;76.24;100307.31;5036006;28;20095;-79
2021/01/18 04:46:09;;;;;;;18.40;7.03;;;;;;;5.65;76.17;100313.41;5035979;28;20111;-78
2021/01/18 04:48:38;;;;;;;22.63;7.32;;;;;;;5.64;76.17;100309.91;5036309;28;20145;-79
2021/01/18 04:51:14;;;;;;;28.27;8.07;;;;;;;5.65;76.10;100300.34;5036107;28;20046;-79
2021/01/18 04:53:48;;;;;;;19.85;7.95;;;;;;;5.66;76.31;100304.66;5036004;28;20042;-79
2021/01/18 04:56:52;;;;;;;21.52;8.80;;;;;;;5.63;75.94;100310.81;5036100;28;20056;-79
2021/01/18 04:59:20;;;;;;;23.85;8.30;;;;;;;5.66;76.31;100304.66;5036000;28;20050;-79
2021/01/18 05:01:51;;;;;;;17.58;8.25;;;;;;;5.66;76.15;100304.66;5036135;28;20041;-79
2021/01/18 05:04:28;;;;;;;23.85;9.85;;;;;;;5.63;76.20;100303.00;5035661;28;20556;-79
2021/01/18 05:06:58;;;;;;;28.33;10.07;;;;;;;5.65;75.94;100306.44;5034696;28;20061;-79
2021/01/18 05:09:29;;;;;;;23.75;10.07;;;;;;;5.67;76.06;100301.13;5035679;28;20049;-79
2021/01/18 05:11:58;;;;;;;29.45;9.70;;;;;;;5.65;76.00;100302.94;5035717;28;20045;-79
2021/01/18 05:14:24;;;;;;;23.83;9.75;;;;;;;5.66;76.15;100302.03;5035579;28;20394;-79
2021/01/18 05:16:59;;;;;;;28.05;10.38;;;;;;;5.62;76.02;100298.66;5057290;22;20049;-80
2021/01/18 05:19:27;;;;;;;20.90;7.85;;;;;;;5.63;76.35;100295.16;5015920;28;20061;-81
2021/01/18 05:21:54;;;;;;;23.63;9.52;;;;;;;5.64;76.27;100296.84;5015813;28;20050;-81
2021/01/18 05:24:21;;;;;;;16.65;8.98;;;;;;;5.65;76.55;100300.34;5015540;28;20108;-81
2021/01/18 05:27:04;;;;;;;26.95;10.50;;;;;;;5.60;76.24;100303.94;5015509;28;20054;-80
2021/01/18 05:29:32;;;;;;;18.48;9.20;;;;;;;5.66;76.07;100296.81;5015596;28;20166;-80
2021/01/18 05:31:58;;;;;;;19.02;9.55;;;;;;;5.66;76.35;100304.66;5015388;28;20045;-80
2021/01/18 05:34:28;;;;;;;19.85;8.13;;;;;;;5.65;76.33;100293.38;5015621;28;20054;-81
2021/01/18 05:36:56;;;;;;;28.02;9.80;;;;;;;5.67;76.29;100290.69;5015886;28;20077;-81
2021/01/18 05:39:40;;;;;;;25.70;9.70;;;;;;;5.63;76.05;100289.06;5015569;28;20053;-81
2021/01/18 05:42:20;;;;;;;26.50;9.45;;;;;;;5.64;76.07;100299.47;5015238;28;20482;-80
2021/01/18 05:44:47;;;;;;;24.02;10.40;;;;;;;5.67;76.29;100301.13;5015620;28;20060;-80
2021/01/18 05:47:15;;;;;;;29.02;9.40;;;;;;;5.67;76.13;100303.75;5015235;28;20057;-81
2021/01/18 05:49:46;;;;;;;36.55;10.65;;;;;;;5.65;76.08;100303.81;5015326;28;20053;-81
2021/01/18 05:52:32;;;;;;;23.92;9.85;;;;;;;5.62;75.88;100298.66;5015018;28;20093;-80
2021/01/18 05:55:19;;;;;;;20.75;10.10;;;;;;;5.63;75.99;100296.91;5015103;28;20510;-81
2021/01/18 05:57:50;;;;;;;26.48;10.10;;;;;;;5.65;76.29;100303.81;5015150;28;20061;-80
2021/01/18 06:00:23;;;;;;;31.80;10.45;;;;;;;5.62;76.22;100293.44;5015164;28;20445;-81
2021/01/18 06:02:50;;;;;;;26.25;10.63;;;;;;;5.66;76.53;100302.03;5013434;28;20506;-81
2021/01/18 06:05:22;;;;;;;22.67;11.60;;;;;;;5.64;76.31;100306.47;5014249;28;20476;-81
2021/01/18 06:07:50;;;;;;;24.17;10.63;;;;;;;5.65;76.70;100298.59;5015103;28;20057;-81
2021/01/18 06:10:17;;;;;;;23.58;10.75;;;;;;;5.67;76.38;100295.91;5014944;28;20053;-81
2021/01/18 06:12:44;;;;;;;23.45;10.35;;;;;;;5.68;76.34;100305.47;5014609;28;20453;-81
2021/01/18 06:15:11;;;;;;;29.85;11.30;;;;;;;5.66;76.25;100309.88;5014819;28;20054;-81
2021/01/18 06:17:42;;;;;;;26.52;11.82;;;;;;;5.66;76.40;100294.22;5014579;28;20049;-81
2021/01/18 06:20:09;;;;;;;24.88;11.25;;;;;;;5.66;76.40;100299.44;5014812;28;20049;-81
2021/01/18 06:22:36;;;;;;;22.17;11.02;;;;;;;5.65;76.49;100295.13;5014497;28;20050;-81
2021/01/18 06:25:12;;;;;;;27.05;11.07;;;;;;;5.64;76.09;100298.63;5014610;28;20058;-81
2021/01/18 06:27:39;;;;;;;33.22;13.05;;;;;;;5.67;76.50;100301.13;5014510;28;20066;-80
2021/01/18 06:30:20;;;;;;;25.85;12.13;;;;;;;5.64;76.06;100301.25;5014567;28;20088;-81
2021/01/18 06:32:49;;;;;;;23.50;11.65;;;;;;;5.67;76.41;100303.75;5014479;28;20052;-81
2021/01/18 06:35:29;;;;;;;27.08;12.50;;;;;;;5.67;76.23;100293.31;5014156;28;20507;-81
2021/01/18 06:37:57;;;;;;;29.17;11.85;;;;;;;5.69;76.30;100297.59;5014481;28;20057;-81
2021/01/18 06:40:31;;;;;;;28.80;12.13;;;;;;;5.65;75.91;100295.97;5014386;28;20057;-81
2021/01/18 06:42:59;;;;;;;33.10;13.55;;;;;;;5.67;76.39;100301.13;5014081;28;20060;-80
2021/01/18 06:45:37;;;;;;;24.00;12.38;;;;;;;5.65;76.24;100298.59;5014186;28;20050;-80
2021/01/18 06:48:05;;;;;;;28.80;11.73;;;;;;;5.68;76.51;100292.44;5014218;28;20050;-81
2021/01/18 06:50:35;;;;;;;32.22;12.70;;;;;;;5.68;76.44;100300.25;5014403;28;20077;-81
2021/01/18 06:53:10;;;;;;;26.88;13.18;;;;;;;5.66;76.31;100295.06;5014089;28;20049;-80
2021/01/18 06:55:44;;;;;;;27.48;13.23;;;;;;;5.69;76.28;100301.97;5013863;28;20549;-81
2021/01/18 06:58:33;;;;;;;27.02;13.02;;;;;;;5.67;76.11;100298.53;5014253;28;20049;-80
2021/01/18 07:01:00;;;;;;;26.60;12.63;;;;;;;5.70;76.24;100290.63;5013881;28;20486;-80
2021/01/18 07:03:39;;;;;;;30.45;13.85;;;;;;;5.69;76.48;100294.97;5013614;28;20049;-81
2021/01/18 07:06:28;;;;;;;26.33;12.48;;;;;;;5.68;76.06;100297.66;5012797;28;20053;-80
2021/01/18 07:08:57;;;;;;;23.80;12.30;;;;;;;5.70;76.38;100296.72;5014037;28;20050;-81
2021/01/18 07:11:24;;;;;;;31.90;13.68;;;;;;;5.69;76.21;100292.34;5013967;28;20053;-81
2021/01/18 07:13:50;;;;;;;24.70;12.50;;;;;;;5.69;76.34;100294.13;5013697;28;20053;-81
2021/01/18 07:16:18;;;;;;;27.75;12.52;;;;;;;5.68;76.43;100287.19;5012793;28;20053;-81
2021/01/18 07:18:51;;;;;;;34.58;13.27;;;;;;;5.67;76.05;100286.34;5013876;28;20054;-81
2021/01/18 07:21:19;;;;;;;25.08;12.45;;;;;;;5.70;76.37;100280.16;5013760;28;20049;-81
2021/01/18 07:23:53;;;;;;;26.75;13.07;;;;;;;5.67;76.08;100280.25;5013499;28;20050;-81
2021/01/18 07:26:37;;;;;;;26.35;13.73;;;;;;;5.68;76.07;100282.81;5012936;28;20050;-81
2021/01/18 07:29:07;;;;;;;31.67;12.88;;;;;;;5.71;76.26;100282.75;5013811;28;20053;-81
2021/01/18 07:31:36;;;;;;;24.83;13.48;;;;;;;5.73;76.63;100272.25;5013447;28;20049;-81
2021/01/18 07:34:05;;;;;;;32.13;13.15;;;;;;;5.73;76.32;100273.09;5013438;28;20410;-81
2021/01/18 07:36:32;;;;;;;27.60;12.55;;;;;;;5.76;76.62;100274.78;5013504;28;20076;-81
2021/01/18 07:38:59;;;;;;;24.98;13.07;;;;;;;5.77;76.65;100273.88;5013936;28;20054;-81
2021/01/18 07:41:36;;;;;;;29.52;13.50;;;;;;;5.75;76.31;100267.81;5014477;28;20107;-81
2021/01/18 07:44:04;;;;;;;29.23;13.00;;;;;;;5.80;76.44;100273.75;5013203;28;20046;-81
2021/01/18 07:46:30;;;;;;;29.50;13.68;;;;;;;5.82;76.51;100271.97;5013542;28;20045;-81
2021/01/18 07:49:20;;;;;;;29.02;13.75;;;;;;;5.80;76.07;100265.94;5013585;28;20082;-81
2021/01/18 07:51:46;;;;;;;26.30;14.18;;;;;;;5.84;76.58;100264.09;5013318;28;20486;-81
2021/01/18 07:54:32;;;;;;;27.60;15.10;;;;;;;5.80;76.06;100260.69;5013325;28;20422;-81
2021/01/18 07:57:24;;;;;;;28.60;13.95;;;;;;;5.81;76.14;100277.25;5013461;28;20049;-81
2021/01/18 08:00:10;;;;;;;31.95;13.82;;;;;;;5.85;76.64;100263.19;5012113;28;20046;-82
2021/01/18 08:02:36;;;;;;;31.75;14.90;;;;;;;5.87;76.61;100269.25;5013226;28;20053;-81
2021/01/18 08:05:30;;;;;;;29.40;15.23;;;;;;;5.82;76.31;100266.75;5013430;28;20494;-81
2021/01/18 08:07:59;;;;;;;;;;;;;;;5.89;75.77;100279.63;5012832;28;20045;-82
2021/01/18 08:10:57;;;;;;;33.80;15.32;;;;;;;5.86;75.75;100271.00;5013185;28;19922;-81
2021/01/18 08:13:41;;;;;;;37.60;15.05;;;;;;;5.87;75.73;100274.47;5013042;28;20054;-81
2021/01/18 08:16:15;;;;;;;32.53;16.13;;;;;;;5.86;76.14;100275.34;5013119;28;20169;-81
2021/01/18 08:18:59;;;;;;;31.50;15.60;;;;;;;5.83;76.22;100270.25;5013611;28;20057;-82
2021/01/18 08:21:41;;;;;;;37.22;17.27;;;;;;;5.85;76.18;100268.41;5013293;28;20049;-81
2021/01/18 08:24:08;;;;;;;29.52;15.45;;;;;;;5.88;76.71;100270.94;5013141;28;20046;-82
2021/01/18 08:26:59;;;;;;;42.13;17.10;;;;;;;5.85;76.25;100278.88;5013389;28;20057;-82
2021/01/18 08:29:38;;;;;;;31.33;15.13;;;;;;;5.88;76.58;100281.41;5015481;28;20056;-82
2021/01/18 08:32:25;;;;;;;39.20;15.90;;;;;;;5.90;76.50;100276.13;5016493;28;20041;-80
2021/01/18 08:34:58;;;;;;;43.00;17.85;;;;;;;5.93;76.55;100282.13;5015491;28;20132;-81
2021/01/18 08:37:26;;;;;;;38.47;17.42;;;;;;;5.96;76.56;100276.81;5016639;28;20057;-81
2021/01/18 08:40:13;;;;;;;34.60;17.10;;;;;;;5.94;76.37;100281.22;5017156;28;20058;-81
2021/01/18 08:42:42;;;;;;;37.80;16.20;;;;;;;5.98;76.77;100277.59;5016587;28;20046;-84
2021/01/18 08:45:23;;;;;;;42.55;17.02;;;;;;;5.96;75.78;100281.16;5017606;28;20454;-82
2021/01/18 08:47:58;;;;;;;34.75;15.60;;;;;;;5.98;76.46;100275.00;5016521;28;20054;-82
2021/01/18 08:50:36;;;;;;;32.92;16.23;;;;;;;5.99;76.35;100276.69;5016543;28;20057;-82
2021/01/18 08:53:22;;;;;;;33.95;16.55;;;;;;;6.03;76.62;100280.13;5014748;28;20046;-82
2021/01/18 08:55:52;;;;;;;31.88;16.08;;;;;;;6.04;76.48;100274.00;5016429;28;20046;-82
2021/01/18 08:58:34;;;;;;;46.00;16.45;;;;;;;6.03;76.08;100268.78;5016120;28;20076;-82
2021/01/18 09:01:00;;;;;;;39.53;15.32;;;;;;;6.07;76.73;100273.91;5016552;28;20104;-82
2021/01/18 09:03:27;;;;;;;37.15;17.05;;;;;;;6.08;76.66;100266.91;5017447;28;20045;-83
2021/01/18 09:05:56;;;;;;;35.05;16.27;;;;;;;6.09;76.53;100266.03;5015947;28;20057;-83
2021/01/18 09:08:23;;;;;;;39.40;16.17;;;;;;;6.11;76.77;100272.91;5016168;28;20054;-82
2021/01/18 09:11:01;;;;;;;36.72;16.60;;;;;;;6.09;76.47;100261.63;5015999;28;20050;-82
2021/01/18 09:13:31;;;;;;;42.50;16.02;;;;;;;6.12;76.63;100256.31;5016627;28;20527;-83
2021/01/18 09:15:59;;;;;;;34.63;16.85;;;;;;;6.15;76.64;100264.97;5017194;28;20125;-82
2021/01/18 09:18:26;;;;;;;42.60;17.17;;;;;;;6.16;76.88;100259.69;5015058;28;20064;-82
2021/01/18 09:20:58;;;;;;;36.80;16.45;;;;;;;6.18;76.34;100270.09;5016531;28;20486;-83
2021/01/18 09:23:27;;;;;;;45.78;18.40;;;;;;;6.19;76.45;100261.34;5014949;28;20433;-81
2021/01/18 09:26:14;;;;;;;38.30;18.00;;;;;;;6.20;76.60;100269.16;5015605;28;20084;-82
2021/01/18 09:28:53;;;;;;;48.33;18.80;;;;;;;6.20;75.89;100268.31;5015596;28;20096;-81
2021/01/18 09:31:20;;;;;;;38.30;17.08;;;;;;;6.24;76.53;100259.44;5015836;28;20093;-83
2021/01/18 09:33:47;;;;;;;42.58;18.13;;;;;;;6.26;76.69;100257.66;5017395;28;20157;-83
2021/01/18 09:36:15;;;;;;;41.55;18.27;;;;;;;6.26;76.45;100257.66;5017473;28;20057;-83
2021/01/18 09:38:42;;;;;;;42.47;19.75;;;;;;;6.28;76.63;100255.84;5014384;28;20449;-83
2021/01/18 09:41:10;;;;;;;44.20;21.15;;;;;;;6.29;76.61;100252.34;5015646;28;20058;-82
2021/01/18 09:43:37;;;;;;;42.97;20.67;;;;;;;6.30;76.48;100254.03;5015045;28;20049;-82
2021/01/18 09:46:03;;;;;;;39.65;20.60;;;;;;;6.32;76.56;100252.22;5015171;28;20046;-81
2021/01/18 09:48:30;;;;;;;47.47;20.80;;;;;;;6.34;76.34;100254.78;5015371;28;20049;-81
2021/01/18 09:51:08;;;;;;;48.20;21.13;;;;;;;6.32;76.25;100254.84;5014275;28;20053;-81
2021/01/18 09:53:35;;;;;;;48.97;22.75;;;;;;;6.35;76.40;100246.91;5014893;28;20486;-81
2021/01/18 09:56:22;;;;;;;49.20;21.27;;;;;;;6.37;76.63;100245.13;5014858;28;20049;-81
2021/01/18 09:58:55;;;;;;;44.42;21.90;;;;;;;6.39;76.38;100242.44;5014850;28;20473;-82
2021/01/18 10:01:33;;;;;;;52.15;23.75;;;;;;;6.38;76.08;100245.97;5014138;28;20076;-81
2021/01/18 10:04:05;;;;;;;43.58;21.48;;;;;;;6.41;76.27;100250.22;5014814;28;20050;-81
2021/01/18 10:06:35;;;;;;;47.20;22.88;;;;;;;6.41;76.43;100240.63;5014985;28;20054;-81
2021/01/18 10:09:08;;;;;;;43.60;22.27;;;;;;;6.42;76.36;100238.88;5015123;28;20057;-81
2021/01/18 10:11:47;;;;;;;44.22;21.58;;;;;;;6.41;75.82;100234.53;5014933;28;20054;-81
2021/01/18 10:14:23;;;;;;;41.67;22.33;;;;;;;6.43;76.10;100224.91;5014701;28;20045;-82
2021/01/18 10:17:04;;;;;;;44.30;21.58;;;;;;;6.43;76.24;100223.13;5010119;28;20060;-81
2021/01/18 10:19:34;;;;;;;41.38;22.08;;;;;;;6.48;76.46;100229.09;4999167;28;20057;-81
2021/01/18 10:22:03;;;;;;;39.95;21.00;;;;;;;6.49;76.61;100217.72;4994111;28;20054;-81
2021/01/18 10:24:31;;;;;;;38.33;19.85;;;;;;;6.51;76.67;100220.28;4994471;28;20050;-82
2021/01/18 10:27:12;;;;;;;50.53;21.00;;;;;;;6.51;76.05;100220.28;4994493;28;20057;-82
2021/01/18 10:29:40;;;;;;;45.28;22.48;;;;;;;6.56;76.56;100204.41;4994401;28;20057;-82
2021/01/18 10:32:08;;;;;;;41.58;21.30;;;;;;;6.57;76.65;100193.91;4993616;28;20060;-82
2021/01/18 10:34:35;;;;;;;40.90;20.40;;;;;;;6.60;76.73;100208.66;4993950;28;20050;-82
2021/01/18 10:37:18;;;;;;;35.42;19.27;;;;;;;6.62;76.47;100196.38;4994255;28;20058;-82
2021/01/18 10:39:49;;;;;;;35.05;17.42;;;;;;;6.63;76.26;100198.97;4994424;28;20050;-82
2021/01/18 10:42:20;;;;;;;39.95;19.38;;;;;;;6.66;76.15;100198.00;4993489;28;20564;-83
2021/01/18 10:44:51;;;;;;;38.08;19.92;;;;;;;6.67;75.67;100189.22;4992980;28;20054;-82
2021/01/18 10:47:25;;;;;;;40.08;18.40;;;;;;;6.71;76.02;100195.19;4993058;28;20054;-82
2021/01/18 10:49:52;;;;;;;50.35;19.13;;;;;;;6.73;76.08;100194.25;4994137;28;20058;-82
2021/01/18 10:52:19;;;;;;;34.03;17.85;;;;;;;6.75;76.22;100186.34;4992372;28;20047;-82
2021/01/18 10:54:59;;;;;;;42.50;18.98;;;;;;;6.74;75.34;100190.75;4993557;28;20046;-82
2021/01/18 10:57:42;;;;;;;33.42;17.95;;;;;;;6.80;76.20;100187.03;4993867;28;20054;-82
2021/01/18 11:00:11;;;;;;;36.30;18.10;;;;;;;6.82;76.12;100187.00;4993691;28;20061;-82
2021/01/18 11:02:38;;;;;;;31.42;17.73;;;;;;;6.84;76.09;100199.09;4993620;28;20047;-82
2021/01/18 11:05:09;;;;;;;33.75;17.35;;;;;;;6.84;75.74;100199.09;4993601;28;20057;-81
2021/01/18 11:07:37;;;;;;;29.67;16.17;;;;;;;6.86;76.05;100193.81;4994017;28;20054;-82
2021/01/18 11:10:14;;;;;;;29.38;16.80;;;;;;;6.88;75.46;100186.78;4992904;28;20089;-82
2021/01/18 11:12:41;;;;;;;33.15;18.00;;;;;;;6.86;75.52;100191.22;4991772;28;20061;-82
2021/01/18 11:15:13;;;;;;;27.98;16.35;;;;;;;6.87;75.80;100180.69;4993436;28;20088;-82
2021/01/18 11:17:39;;;;;;;37.95;17.92;;;;;;;6.85;75.06;100184.28;4993437;28;20050;-82
2021/01/18 11:20:08;;;;;;;30.25;17.25;;;;;;;6.86;75.44;100172.88;4993445;28;20454;-82
2021/01/18 11:22:34;;;;;;;37.95;17.90;;;;;;;6.87;76.03;100175.47;4993368;28;20049;-83
2021/01/18 11:25:01;;;;;;;35.53;16.90;;;;;;;6.88;75.64;100173.72;4993286;28;20443;-82
2021/01/18 11:27:27;;;;;;;32.00;15.65;;;;;;;6.90;75.86;100170.13;4993625;28;20061;-82
2021/01/18 11:29:53;;;;;;;39.10;16.83;;;;;;;6.93;75.60;100173.53;4993738;28;20050;-83
2021/01/18 11:32:19;;;;;;;33.53;16.80;;;;;;;6.95;75.55;100169.94;4992665;28;20499;-82
2021/01/18 11:34:46;;;;;;;30.52;15.73;;;;;;;6.95;75.67;100169.94;4993773;28;20053;-82
2021/01/18 11:37:12;;;;;;;33.83;16.55;;;;;;;6.95;75.49;100166.50;4993540;28;20054;-83
2021/01/18 11:39:38;;;;;;;33.97;15.73;;;;;;;6.98;75.78;100162.00;4992667;28;20133;-82
2021/01/18 11:42:06;;;;;;;30.25;15.70;;;;;;;7.00;75.66;100159.34;4991805;28;20046;-82